sensor_id;sensor_type;location;lat;lon;timestamp;P1;durP1;ratioP1;P2;durP2;ratioP2
22248;SDS011;67538;52.180;5.646;2023-04-01T00:01:51;26.90;;;17.70;;
22248;SDS011;67538;52.180;5.646;2023-04-01T00:04:18;23.92;;;17.63;;
22248;SDS011;67538;52.180;5.646;2023-04-01T00:06:45;26.20;;;18.00;;
22248;SDS011;67538;52.180;5.646;2023-04-01T00:09:13;26.65;;;18.13;;
22248;SDS011;67538;52.180;5.646;2023-04-01T00:11:42;29.42;;;18.45;;
22248;SDS011;67538;52.180;5.646;2023-04-01T00:14:09;29.88;;;19.42;;
22248;SDS011;67538;52.180;5.646;2023-04-01T00:16:38;27.90;;;19.25;;
22248;SDS011;67538;52.180;5.646;2023-04-01T00:19:05;33.33;;;20.15;;
22248;SDS011;67538;52.180;5.646;2023-04-01T00:21:33;32.53;;;19.92;;
22248;SDS011;67538;52.180;5.646;2023-04-01T00:24:00;34.13;;;19.73;;
22248;SDS011;67538;52.180;5.646;2023-04-01T00:26:27;29.27;;;19.73;;
22248;SDS011;67538;52.180;5.646;2023-04-01T00:28:55;31.25;;;20.30;;
22248;SDS011;67538;52.180;5.646;2023-04-01T00:31:22;38.30;;;21.33;;
22248;SDS011;67538;52.180;5.646;2023-04-01T00:33:50;40.38;;;22.73;;
22248;SDS011;67538;52.180;5.646;2023-04-01T00:36:19;40.27;;;23.40;;
22248;SDS011;67538;52.180;5.646;2023-04-01T00:38:48;44.05;;;23.52;;
22248;SDS011;67538;52.180;5.646;2023-04-01T00:41:17;43.17;;;24.30;;
22248;SDS011;67538;52.180;5.646;2023-04-01T00:43:47;43.95;;;23.92;;
22248;SDS011;67538;52.180;5.646;2023-04-01T00:46:17;45.03;;;24.35;;
22248;SDS011;67538;52.180;5.646;2023-04-01T00:48:45;44.00;;;24.30;;
22248;SDS011;67538;52.180;5.646;2023-04-01T00:51:17;43.88;;;24.35;;
22248;SDS011;67538;52.180;5.646;2023-04-01T00:53:48;48.10;;;24.63;;
22248;SDS011;67538;52.180;5.646;2023-04-01T00:56:18;43.40;;;24.63;;
22248;SDS011;67538;52.180;5.646;2023-04-01T00:58:49;48.70;;;25.48;;
22248;SDS011;67538;52.180;5.646;2023-04-01T01:01:22;45.08;;;24.83;;
22248;SDS011;67538;52.180;5.646;2023-04-01T01:03:50;46.55;;;25.10;;
22248;SDS011;67538;52.180;5.646;2023-04-01T01:06:20;50.60;;;25.40;;
22248;SDS011;67538;52.180;5.646;2023-04-01T01:09:06;50.05;;;25.92;;
22248;SDS011;67538;52.180;5.646;2023-04-01T01:11:42;52.05;;;26.67;;
22248;SDS011;67538;52.180;5.646;2023-04-01T01:14:20;57.37;;;27.93;;
22248;SDS011;67538;52.180;5.646;2023-04-01T01:17:02;63.28;;;29.63;;
22248;SDS011;67538;52.180;5.646;2023-04-01T01:19:46;60.60;;;29.27;;
22248;SDS011;67538;52.180;5.646;2023-04-01T01:25:25;69.88;;;31.45;;
22248;SDS011;67538;52.180;5.646;2023-04-01T01:28:00;67.63;;;30.10;;
22248;SDS011;67538;52.180;5.646;2023-04-01T01:30:43;65.72;;;31.00;;
22248;SDS011;67538;52.180;5.646;2023-04-01T01:33:20;67.87;;;30.37;;
22248;SDS011;67538;52.180;5.646;2023-04-01T01:36:05;67.45;;;30.48;;
22248;SDS011;67538;52.180;5.646;2023-04-01T01:38:36;66.05;;;30.15;;
22248;SDS011;67538;52.180;5.646;2023-04-01T01:41:05;67.63;;;30.00;;
22248;SDS011;67538;52.180;5.646;2023-04-01T01:43:35;69.45;;;30.45;;
22248;SDS011;67538;52.180;5.646;2023-04-01T01:46:05;72.10;;;31.73;;
22248;SDS011;67538;52.180;5.646;2023-04-01T01:48:37;68.90;;;32.40;;
22248;SDS011;67538;52.180;5.646;2023-04-01T01:51:06;75.53;;;33.53;;
22248;SDS011;67538;52.180;5.646;2023-04-01T01:53:33;83.68;;;35.10;;
22248;SDS011;67538;52.180;5.646;2023-04-01T01:56:00;83.75;;;36.42;;
22248;SDS011;67538;52.180;5.646;2023-04-01T01:58:28;83.95;;;37.30;;
22248;SDS011;67538;52.180;5.646;2023-04-01T02:01:00;79.45;;;35.70;;
22248;SDS011;67538;52.180;5.646;2023-04-01T02:03:30;74.50;;;35.28;;
22248;SDS011;67538;52.180;5.646;2023-04-01T02:06:01;76.90;;;33.97;;
22248;SDS011;67538;52.180;5.646;2023-04-01T02:08:34;76.60;;;34.33;;
22248;SDS011;67538;52.180;5.646;2023-04-01T02:11:04;65.78;;;30.88;;
22248;SDS011;67538;52.180;5.646;2023-04-01T02:13:35;57.95;;;28.05;;
22248;SDS011;67538;52.180;5.646;2023-04-01T02:16:07;58.13;;;28.70;;
22248;SDS011;67538;52.180;5.646;2023-04-01T02:18:39;54.65;;;28.30;;
22248;SDS011;67538;52.180;5.646;2023-04-01T02:21:09;59.85;;;29.83;;
22248;SDS011;67538;52.180;5.646;2023-04-01T02:23:39;59.00;;;28.48;;
22248;SDS011;67538;52.180;5.646;2023-04-01T02:26:08;47.42;;;25.73;;
22248;SDS011;67538;52.180;5.646;2023-04-01T02:28:36;45.83;;;23.03;;
22248;SDS011;67538;52.180;5.646;2023-04-01T02:31:05;39.20;;;21.67;;
22248;SDS011;67538;52.180;5.646;2023-04-01T02:33:34;35.40;;;20.40;;
22248;SDS011;67538;52.180;5.646;2023-04-01T02:36:04;40.43;;;21.37;;
22248;SDS011;67538;52.180;5.646;2023-04-01T02:38:31;37.83;;;20.90;;
22248;SDS011;67538;52.180;5.646;2023-04-01T02:41:04;42.75;;;23.73;;
22248;SDS011;67538;52.180;5.646;2023-04-01T02:43:31;44.00;;;24.25;;
22248;SDS011;67538;52.180;5.646;2023-04-01T02:45:59;41.72;;;23.63;;
22248;SDS011;67538;52.180;5.646;2023-04-01T02:48:26;42.95;;;24.52;;
22248;SDS011;67538;52.180;5.646;2023-04-01T02:50:53;41.88;;;25.05;;
22248;SDS011;67538;52.180;5.646;2023-04-01T02:53:21;42.90;;;25.00;;
22248;SDS011;67538;52.180;5.646;2023-04-01T02:55:48;39.05;;;22.83;;
22248;SDS011;67538;52.180;5.646;2023-04-01T02:58:18;39.47;;;22.73;;
22248;SDS011;67538;52.180;5.646;2023-04-01T03:00:45;39.80;;;22.77;;
22248;SDS011;67538;52.180;5.646;2023-04-01T03:03:12;34.55;;;20.92;;
22248;SDS011;67538;52.180;5.646;2023-04-01T03:05:39;35.40;;;20.25;;
22248;SDS011;67538;52.180;5.646;2023-04-01T03:08:07;34.03;;;21.05;;
22248;SDS011;67538;52.180;5.646;2023-04-01T03:10:34;32.55;;;20.83;;
22248;SDS011;67538;52.180;5.646;2023-04-01T03:13:01;34.65;;;20.50;;
22248;SDS011;67538;52.180;5.646;2023-04-01T03:15:29;32.50;;;19.23;;
22248;SDS011;67538;52.180;5.646;2023-04-01T03:17:56;35.47;;;20.25;;
22248;SDS011;67538;52.180;5.646;2023-04-01T03:20:23;34.60;;;20.77;;
22248;SDS011;67538;52.180;5.646;2023-04-01T03:22:51;35.20;;;20.45;;
22248;SDS011;67538;52.180;5.646;2023-04-01T03:25:18;36.80;;;20.67;;
22248;SDS011;67538;52.180;5.646;2023-04-01T03:27:45;35.15;;;21.15;;
22248;SDS011;67538;52.180;5.646;2023-04-01T03:30:12;34.22;;;20.95;;
22248;SDS011;67538;52.180;5.646;2023-04-01T03:32:40;33.80;;;19.98;;
22248;SDS011;67538;52.180;5.646;2023-04-01T03:35:08;33.97;;;20.02;;
22248;SDS011;67538;52.180;5.646;2023-04-01T03:37:36;31.75;;;20.50;;
22248;SDS011;67538;52.180;5.646;2023-04-01T03:40:04;30.85;;;19.52;;
22248;SDS011;67538;52.180;5.646;2023-04-01T03:42:32;34.60;;;20.30;;
22248;SDS011;67538;52.180;5.646;2023-04-01T03:44:59;33.15;;;19.50;;
22248;SDS011;67538;52.180;5.646;2023-04-01T03:47:26;31.48;;;18.77;;
22248;SDS011;67538;52.180;5.646;2023-04-01T03:49:54;32.45;;;18.83;;
22248;SDS011;67538;52.180;5.646;2023-04-01T03:52:21;28.87;;;18.57;;
22248;SDS011;67538;52.180;5.646;2023-04-01T03:54:48;29.20;;;18.55;;
22248;SDS011;67538;52.180;5.646;2023-04-01T03:57:15;31.15;;;18.63;;
22248;SDS011;67538;52.180;5.646;2023-04-01T03:59:42;28.30;;;17.83;;
22248;SDS011;67538;52.180;5.646;2023-04-01T04:02:09;25.80;;;17.63;;
22248;SDS011;67538;52.180;5.646;2023-04-01T04:04:36;27.75;;;17.35;;
22248;SDS011;67538;52.180;5.646;2023-04-01T04:07:05;27.67;;;16.60;;
22248;SDS011;67538;52.180;5.646;2023-04-01T04:09:32;24.70;;;15.63;;
22248;SDS011;67538;52.180;5.646;2023-04-01T04:11:59;24.92;;;15.93;;
22248;SDS011;67538;52.180;5.646;2023-04-01T04:14:27;28.10;;;16.77;;
22248;SDS011;67538;52.180;5.646;2023-04-01T04:16:54;28.27;;;17.37;;
22248;SDS011;67538;52.180;5.646;2023-04-01T04:19:21;29.15;;;17.23;;
22248;SDS011;67538;52.180;5.646;2023-04-01T04:21:48;24.92;;;16.85;;
22248;SDS011;67538;52.180;5.646;2023-04-01T04:24:16;30.52;;;16.88;;
22248;SDS011;67538;52.180;5.646;2023-04-01T04:26:43;27.15;;;16.67;;
22248;SDS011;67538;52.180;5.646;2023-04-01T04:29:10;28.88;;;16.35;;
22248;SDS011;67538;52.180;5.646;2023-04-01T04:31:37;28.27;;;15.80;;
22248;SDS011;67538;52.180;5.646;2023-04-01T04:34:04;26.52;;;15.90;;
22248;SDS011;67538;52.180;5.646;2023-04-01T04:36:31;26.88;;;16.63;;
22248;SDS011;67538;52.180;5.646;2023-04-01T04:38:58;29.67;;;17.03;;
22248;SDS011;67538;52.180;5.646;2023-04-01T04:41:28;28.60;;;16.48;;
22248;SDS011;67538;52.180;5.646;2023-04-01T04:43:56;29.73;;;17.00;;
22248;SDS011;67538;52.180;5.646;2023-04-01T04:46:23;30.83;;;16.83;;
22248;SDS011;67538;52.180;5.646;2023-04-01T04:48:51;32.42;;;17.02;;
22248;SDS011;67538;52.180;5.646;2023-04-01T04:51:18;32.13;;;16.02;;
22248;SDS011;67538;52.180;5.646;2023-04-01T04:53:46;35.05;;;16.85;;
22248;SDS011;67538;52.180;5.646;2023-04-01T04:56:17;34.40;;;16.02;;
22248;SDS011;67538;52.180;5.646;2023-04-01T04:58:46;31.67;;;16.23;;
22248;SDS011;67538;52.180;5.646;2023-04-01T05:01:14;34.50;;;16.13;;
22248;SDS011;67538;52.180;5.646;2023-04-01T05:03:42;36.95;;;16.55;;
22248;SDS011;67538;52.180;5.646;2023-04-01T05:06:10;38.33;;;16.98;;
22248;SDS011;67538;52.180;5.646;2023-04-01T05:08:38;41.85;;;17.17;;
22248;SDS011;67538;52.180;5.646;2023-04-01T05:11:07;36.05;;;16.63;;
22248;SDS011;67538;52.180;5.646;2023-04-01T05:13:37;46.10;;;18.42;;
22248;SDS011;67538;52.180;5.646;2023-04-01T05:16:07;36.47;;;16.52;;
22248;SDS011;67538;52.180;5.646;2023-04-01T05:18:35;39.77;;;16.93;;
22248;SDS011;67538;52.180;5.646;2023-04-01T05:21:02;38.38;;;17.58;;
22248;SDS011;67538;52.180;5.646;2023-04-01T05:23:31;40.78;;;17.25;;
22248;SDS011;67538;52.180;5.646;2023-04-01T05:25:58;44.38;;;18.13;;
22248;SDS011;67538;52.180;5.646;2023-04-01T05:28:28;41.35;;;17.67;;
22248;SDS011;67538;52.180;5.646;2023-04-01T05:30:57;43.20;;;17.70;;
22248;SDS011;67538;52.180;5.646;2023-04-01T05:33:26;43.38;;;18.02;;
22248;SDS011;67538;52.180;5.646;2023-04-01T05:35:53;44.95;;;17.90;;
22248;SDS011;67538;52.180;5.646;2023-04-01T05:38:21;46.97;;;18.58;;
22248;SDS011;67538;52.180;5.646;2023-04-01T05:40:48;43.50;;;18.15;;
22248;SDS011;67538;52.180;5.646;2023-04-01T05:43:15;44.63;;;17.95;;
22248;SDS011;67538;52.180;5.646;2023-04-01T05:45:42;43.45;;;18.02;;
22248;SDS011;67538;52.180;5.646;2023-04-01T05:48:09;42.80;;;17.40;;
22248;SDS011;67538;52.180;5.646;2023-04-01T05:50:37;45.63;;;18.23;;
22248;SDS011;67538;52.180;5.646;2023-04-01T05:53:06;48.05;;;18.30;;
22248;SDS011;67538;52.180;5.646;2023-04-01T05:55:34;47.13;;;18.67;;
22248;SDS011;67538;52.180;5.646;2023-04-01T05:58:01;50.20;;;19.40;;
22248;SDS011;67538;52.180;5.646;2023-04-01T06:00:29;46.88;;;19.38;;
22248;SDS011;67538;52.180;5.646;2023-04-01T06:02:57;54.38;;;20.05;;
22248;SDS011;67538;52.180;5.646;2023-04-01T06:05:26;53.75;;;20.15;;
22248;SDS011;67538;52.180;5.646;2023-04-01T06:07:58;61.97;;;20.95;;
22248;SDS011;67538;52.180;5.646;2023-04-01T06:10:32;57.20;;;19.55;;
22248;SDS011;67538;52.180;5.646;2023-04-01T06:13:06;61.10;;;19.95;;
22248;SDS011;67538;52.180;5.646;2023-04-01T06:15:40;45.83;;;18.10;;
22248;SDS011;67538;52.180;5.646;2023-04-01T06:21:25;51.60;;;18.27;;
22248;SDS011;67538;52.180;5.646;2023-04-01T06:24:28;54.33;;;19.25;;
22248;SDS011;67538;52.180;5.646;2023-04-01T06:27:12;43.70;;;17.30;;
22248;SDS011;67538;52.180;5.646;2023-04-01T06:29:50;46.05;;;18.38;;
22248;SDS011;67538;52.180;5.646;2023-04-01T06:35:31;41.45;;;17.13;;
22248;SDS011;67538;52.180;5.646;2023-04-01T06:38:25;30.42;;;15.50;;
22248;SDS011;67538;52.180;5.646;2023-04-01T06:41:11;32.77;;;15.17;;
22248;SDS011;67538;52.180;5.646;2023-04-01T06:43:59;30.25;;;14.27;;
22248;SDS011;67538;52.180;5.646;2023-04-01T06:46:37;29.23;;;13.90;;
22248;SDS011;67538;52.180;5.646;2023-04-01T06:49:20;30.25;;;13.68;;
22248;SDS011;67538;52.180;5.646;2023-04-01T06:51:56;29.90;;;14.18;;
22248;SDS011;67538;52.180;5.646;2023-04-01T06:54:28;25.17;;;12.57;;
22248;SDS011;67538;52.180;5.646;2023-04-01T06:57:00;28.23;;;13.00;;
22248;SDS011;67538;52.180;5.646;2023-04-01T06:59:32;23.40;;;12.27;;
22248;SDS011;67538;52.180;5.646;2023-04-01T07:02:02;27.38;;;12.40;;
22248;SDS011;67538;52.180;5.646;2023-04-01T07:04:40;20.20;;;11.18;;
22248;SDS011;67538;52.180;5.646;2023-04-01T07:07:14;19.85;;;10.75;;
22248;SDS011;67538;52.180;5.646;2023-04-01T07:09:48;21.63;;;11.13;;
22248;SDS011;67538;52.180;5.646;2023-04-01T07:12:21;18.25;;;10.27;;
22248;SDS011;67538;52.180;5.646;2023-04-01T07:15:02;18.42;;;10.60;;
22248;SDS011;67538;52.180;5.646;2023-04-01T07:17:38;17.63;;;9.90;;
22248;SDS011;67538;52.180;5.646;2023-04-01T07:20:11;16.17;;;9.38;;
22248;SDS011;67538;52.180;5.646;2023-04-01T07:22:45;15.13;;;8.80;;
22248;SDS011;67538;52.180;5.646;2023-04-01T07:25:16;15.40;;;8.50;;
22248;SDS011;67538;52.180;5.646;2023-04-01T07:27:46;14.65;;;7.75;;
22248;SDS011;67538;52.180;5.646;2023-04-01T07:30:14;9.55;;;5.47;;
22248;SDS011;67538;52.180;5.646;2023-04-01T07:32:43;4.75;;;3.80;;
22248;SDS011;67538;52.180;5.646;2023-04-01T07:35:17;4.35;;;3.10;;
22248;SDS011;67538;52.180;5.646;2023-04-01T07:37:58;3.30;;;2.75;;
22248;SDS011;67538;52.180;5.646;2023-04-01T07:40:39;3.30;;;2.50;;
22248;SDS011;67538;52.180;5.646;2023-04-01T07:43:30;3.22;;;2.60;;
22248;SDS011;67538;52.180;5.646;2023-04-01T07:46:14;3.22;;;2.60;;
22248;SDS011;67538;52.180;5.646;2023-04-01T07:48:51;3.75;;;2.80;;
22248;SDS011;67538;52.180;5.646;2023-04-01T07:51:24;2.97;;;2.58;;
22248;SDS011;67538;52.180;5.646;2023-04-01T07:53:59;2.95;;;2.58;;
22248;SDS011;67538;52.180;5.646;2023-04-01T07:56:33;3.08;;;2.63;;
22248;SDS011;67538;52.180;5.646;2023-04-01T07:59:07;3.17;;;2.87;;
22248;SDS011;67538;52.180;5.646;2023-04-01T08:01:43;3.67;;;3.00;;
22248;SDS011;67538;52.180;5.646;2023-04-01T08:04:34;3.00;;;2.80;;
22248;SDS011;67538;52.180;5.646;2023-04-01T08:07:10;3.65;;;3.03;;
22248;SDS011;67538;52.180;5.646;2023-04-01T08:09:43;3.40;;;2.97;;
22248;SDS011;67538;52.180;5.646;2023-04-01T08:12:26;3.70;;;3.30;;
22248;SDS011;67538;52.180;5.646;2023-04-01T08:15:06;3.28;;;2.97;;
22248;SDS011;67538;52.180;5.646;2023-04-01T08:17:43;3.30;;;3.00;;
22248;SDS011;67538;52.180;5.646;2023-04-01T08:20:18;4.95;;;4.18;;
22248;SDS011;67538;52.180;5.646;2023-04-01T08:22:57;4.90;;;4.40;;
22248;SDS011;67538;52.180;5.646;2023-04-01T08:25:27;5.80;;;4.70;;
22248;SDS011;67538;52.180;5.646;2023-04-01T08:27:57;5.30;;;4.72;;
22248;SDS011;67538;52.180;5.646;2023-04-01T08:30:33;5.60;;;4.68;;
22248;SDS011;67538;52.180;5.646;2023-04-01T08:33:09;5.80;;;4.22;;
22248;SDS011;67538;52.180;5.646;2023-04-01T08:35:42;4.80;;;4.20;;
22248;SDS011;67538;52.180;5.646;2023-04-01T08:38:16;5.07;;;4.20;;
22248;SDS011;67538;52.180;5.646;2023-04-01T08:47:13;5.20;;;4.27;;
22248;SDS011;67538;52.180;5.646;2023-04-01T08:53:20;6.43;;;4.25;;
22248;SDS011;67538;52.180;5.646;2023-04-01T08:56:06;7.90;;;4.68;;
22248;SDS011;67538;52.180;5.646;2023-04-01T08:58:47;5.55;;;4.80;;
22248;SDS011;67538;52.180;5.646;2023-04-01T09:01:26;5.88;;;4.97;;
22248;SDS011;67538;52.180;5.646;2023-04-01T09:04:26;6.53;;;5.32;;
22248;SDS011;67538;52.180;5.646;2023-04-01T09:07:20;8.48;;;5.50;;
22248;SDS011;67538;52.180;5.646;2023-04-01T09:10:02;7.90;;;5.70;;
22248;SDS011;67538;52.180;5.646;2023-04-01T09:18:42;7.05;;;5.70;;
22248;SDS011;67538;52.180;5.646;2023-04-01T09:21:39;8.43;;;6.53;;
22248;SDS011;67538;52.180;5.646;2023-04-01T09:24:30;8.52;;;6.70;;
22248;SDS011;67538;52.180;5.646;2023-04-01T09:27:09;10.98;;;7.57;;
22248;SDS011;67538;52.180;5.646;2023-04-01T09:29:47;9.68;;;7.80;;
22248;SDS011;67538;52.180;5.646;2023-04-01T09:32:40;10.15;;;7.97;;
22248;SDS011;67538;52.180;5.646;2023-04-01T09:35:22;8.63;;;7.03;;
22248;SDS011;67538;52.180;5.646;2023-04-01T09:37:57;10.75;;;8.02;;
22248;SDS011;67538;52.180;5.646;2023-04-01T09:40:34;10.02;;;8.20;;
22248;SDS011;67538;52.180;5.646;2023-04-01T09:43:22;10.02;;;7.82;;
22248;SDS011;67538;52.180;5.646;2023-04-01T09:45:58;9.67;;;8.13;;
22248;SDS011;67538;52.180;5.646;2023-04-01T09:48:46;10.75;;;8.80;;
22248;SDS011;67538;52.180;5.646;2023-04-01T09:51:35;10.73;;;8.90;;
22248;SDS011;67538;52.180;5.646;2023-04-01T09:54:13;10.05;;;8.95;;
22248;SDS011;67538;52.180;5.646;2023-04-01T10:00:10;10.02;;;8.85;;
22248;SDS011;67538;52.180;5.646;2023-04-01T10:02:58;9.23;;;8.05;;
22248;SDS011;67538;52.180;5.646;2023-04-01T10:21:05;8.20;;;7.15;;
22248;SDS011;67538;52.180;5.646;2023-04-01T10:30:23;7.88;;;7.00;;
22248;SDS011;67538;52.180;5.646;2023-04-01T10:36:32;4.70;;;3.80;;
22248;SDS011;67538;52.180;5.646;2023-04-01T10:45:44;5.22;;;4.30;;
22248;SDS011;67538;52.180;5.646;2023-04-01T10:51:47;5.55;;;4.65;;
22248;SDS011;67538;52.180;5.646;2023-04-01T10:54:46;4.90;;;4.40;;
22248;SDS011;67538;52.180;5.646;2023-04-01T10:57:36;4.80;;;4.22;;
22248;SDS011;67538;52.180;5.646;2023-04-01T11:00:43;4.15;;;3.75;;
22248;SDS011;67538;52.180;5.646;2023-04-01T11:06:47;4.10;;;3.67;;
22248;SDS011;67538;52.180;5.646;2023-04-01T11:09:59;3.95;;;3.50;;
22248;SDS011;67538;52.180;5.646;2023-04-01T11:16:04;4.15;;;3.75;;
22248;SDS011;67538;52.180;5.646;2023-04-01T11:19:15;6.00;;;3.90;;
22248;SDS011;67538;52.180;5.646;2023-04-01T11:28:15;5.10;;;4.60;;
22248;SDS011;67538;52.180;5.646;2023-04-01T11:31:07;5.10;;;4.60;;
22248;SDS011;67538;52.180;5.646;2023-04-01T11:33:49;5.57;;;4.97;;
22248;SDS011;67538;52.180;5.646;2023-04-01T11:36:29;5.87;;;5.30;;
22248;SDS011;67538;52.180;5.646;2023-04-01T11:39:14;6.00;;;5.35;;
22248;SDS011;67538;52.180;5.646;2023-04-01T11:41:50;5.97;;;5.38;;
22248;SDS011;67538;52.180;5.646;2023-04-01T11:44:23;6.43;;;5.60;;
22248;SDS011;67538;52.180;5.646;2023-04-01T11:47:02;6.78;;;6.07;;
22248;SDS011;67538;52.180;5.646;2023-04-01T11:49:42;6.90;;;6.20;;
22248;SDS011;67538;52.180;5.646;2023-04-01T11:52:35;7.95;;;6.53;;
22248;SDS011;67538;52.180;5.646;2023-04-01T11:55:19;7.10;;;6.40;;
22248;SDS011;67538;52.180;5.646;2023-04-01T11:58:05;7.03;;;6.32;;
22248;SDS011;67538;52.180;5.646;2023-04-01T12:00:43;6.93;;;6.22;;
22248;SDS011;67538;52.180;5.646;2023-04-01T12:03:29;10.07;;;6.90;;
22248;SDS011;67538;52.180;5.646;2023-04-01T12:06:05;7.70;;;6.90;;
22248;SDS011;67538;52.180;5.646;2023-04-01T12:08:42;6.70;;;6.10;;
22248;SDS011;67538;52.180;5.646;2023-04-01T12:11:21;6.40;;;5.78;;
22248;SDS011;67538;52.180;5.646;2023-04-01T12:13:53;7.82;;;5.78;;
22248;SDS011;67538;52.180;5.646;2023-04-01T12:16:28;7.70;;;6.47;;
22248;SDS011;67538;52.180;5.646;2023-04-01T12:19:11;7.65;;;6.18;;
22248;SDS011;67538;52.180;5.646;2023-04-01T12:21:49;7.00;;;6.13;;
22248;SDS011;67538;52.180;5.646;2023-04-01T12:24:34;7.88;;;6.78;;
22248;SDS011;67538;52.180;5.646;2023-04-01T12:27:20;8.00;;;6.90;;
22248;SDS011;67538;52.180;5.646;2023-04-01T12:30:05;8.43;;;7.20;;
22248;SDS011;67538;52.180;5.646;2023-04-01T12:33:04;7.68;;;6.70;;
22248;SDS011;67538;52.180;5.646;2023-04-01T12:35:51;9.23;;;7.20;;
22248;SDS011;67538;52.180;5.646;2023-04-01T12:38:25;8.27;;;7.40;;
22248;SDS011;67538;52.180;5.646;2023-04-01T12:41:03;7.35;;;6.65;;
22248;SDS011;67538;52.180;5.646;2023-04-01T12:46:49;8.02;;;6.50;;
22248;SDS011;67538;52.180;5.646;2023-04-01T12:52:21;7.72;;;6.50;;
22248;SDS011;67538;52.180;5.646;2023-04-01T12:55:18;8.02;;;6.60;;
22248;SDS011;67538;52.180;5.646;2023-04-01T12:58:01;8.07;;;6.80;;
22248;SDS011;67538;52.180;5.646;2023-04-01T13:01:00;9.02;;;6.90;;
22248;SDS011;67538;52.180;5.646;2023-04-01T13:03:43;8.30;;;7.03;;
22248;SDS011;67538;52.180;5.646;2023-04-01T13:06:25;6.70;;;6.00;;
22248;SDS011;67538;52.180;5.646;2023-04-01T13:09:13;7.03;;;6.32;;
22248;SDS011;67538;52.180;5.646;2023-04-01T13:11:57;6.72;;;6.03;;
22248;SDS011;67538;52.180;5.646;2023-04-01T13:14:58;7.13;;;6.30;;
22248;SDS011;67538;52.180;5.646;2023-04-01T13:17:42;7.07;;;6.38;;
22248;SDS011;67538;52.180;5.646;2023-04-01T13:20:19;6.97;;;6.28;;
22248;SDS011;67538;52.180;5.646;2023-04-01T13:22:58;7.25;;;6.15;;
22248;SDS011;67538;52.180;5.646;2023-04-01T13:25:41;7.25;;;6.18;;
22248;SDS011;67538;52.180;5.646;2023-04-01T13:28:14;7.20;;;6.50;;
22248;SDS011;67538;52.180;5.646;2023-04-01T13:30:47;7.05;;;5.53;;
22248;SDS011;67538;52.180;5.646;2023-04-01T13:33:21;6.82;;;5.13;;
22248;SDS011;67538;52.180;5.646;2023-04-01T13:35:57;5.57;;;5.00;;
22248;SDS011;67538;52.180;5.646;2023-04-01T13:41:35;5.70;;;5.05;;
22248;SDS011;67538;52.180;5.646;2023-04-01T13:44:19;5.55;;;4.93;;
22248;SDS011;67538;52.180;5.646;2023-04-01T13:46:58;5.60;;;5.03;;
22248;SDS011;67538;52.180;5.646;2023-04-01T13:52:48;6.05;;;5.07;;
22248;SDS011;67538;52.180;5.646;2023-04-01T13:58:32;6.20;;;5.40;;
22248;SDS011;67538;52.180;5.646;2023-04-01T14:01:10;6.13;;;5.53;;
22248;SDS011;67538;52.180;5.646;2023-04-01T14:03:59;6.53;;;5.43;;
22248;SDS011;67538;52.180;5.646;2023-04-01T14:06:46;5.97;;;5.38;;
22248;SDS011;67538;52.180;5.646;2023-04-01T14:09:25;6.47;;;5.82;;
22248;SDS011;67538;52.180;5.646;2023-04-01T14:12:09;7.22;;;6.25;;
22248;SDS011;67538;52.180;5.646;2023-04-01T14:14:55;6.80;;;6.10;;
22248;SDS011;67538;52.180;5.646;2023-04-01T14:17:40;7.10;;;6.40;;
22248;SDS011;67538;52.180;5.646;2023-04-01T14:20:25;6.63;;;5.90;;
22248;SDS011;67538;52.180;5.646;2023-04-01T14:23:18;9.85;;;6.00;;
22248;SDS011;67538;52.180;5.646;2023-04-01T14:26:07;6.07;;;5.53;;
22248;SDS011;67538;52.180;5.646;2023-04-01T14:28:55;6.40;;;5.80;;
22248;SDS011;67538;52.180;5.646;2023-04-01T14:31:36;6.40;;;5.70;;
22248;SDS011;67538;52.180;5.646;2023-04-01T14:34:22;7.55;;;6.18;;
22248;SDS011;67538;52.180;5.646;2023-04-01T14:37:01;7.32;;;5.97;;
22248;SDS011;67538;52.180;5.646;2023-04-01T14:43:03;6.55;;;5.95;;
22248;SDS011;67538;52.180;5.646;2023-04-01T14:45:52;6.50;;;5.65;;
22248;SDS011;67538;52.180;5.646;2023-04-01T14:48:33;6.90;;;6.10;;
22248;SDS011;67538;52.180;5.646;2023-04-01T14:51:08;6.95;;;6.25;;
22248;SDS011;67538;52.180;5.646;2023-04-01T14:53:41;6.75;;;6.05;;
22248;SDS011;67538;52.180;5.646;2023-04-01T14:59:08;7.82;;;6.10;;
22248;SDS011;67538;52.180;5.646;2023-04-01T15:01:41;7.22;;;6.40;;
22248;SDS011;67538;52.180;5.646;2023-04-01T15:07:21;6.60;;;5.97;;
22248;SDS011;67538;52.180;5.646;2023-04-01T15:10:12;6.38;;;5.78;;
22248;SDS011;67538;52.180;5.646;2023-04-01T15:12:56;5.78;;;5.28;;
22248;SDS011;67538;52.180;5.646;2023-04-01T15:15:39;5.55;;;4.93;;
22248;SDS011;67538;52.180;5.646;2023-04-01T15:18:17;5.70;;;5.13;;
22248;SDS011;67538;52.180;5.646;2023-04-01T15:20:52;5.75;;;5.25;;
22248;SDS011;67538;52.180;5.646;2023-04-01T15:23:37;5.15;;;4.65;;
22248;SDS011;67538;52.180;5.646;2023-04-01T15:26:23;6.00;;;4.77;;
22248;SDS011;67538;52.180;5.646;2023-04-01T15:29:02;4.95;;;4.45;;
22248;SDS011;67538;52.180;5.646;2023-04-01T15:31:37;5.07;;;4.60;;
22248;SDS011;67538;52.180;5.646;2023-04-01T15:34:19;5.13;;;4.72;;
22248;SDS011;67538;52.180;5.646;2023-04-01T15:36:55;5.18;;;4.70;;
22248;SDS011;67538;52.180;5.646;2023-04-01T15:39:30;5.07;;;4.67;;
22248;SDS011;67538;52.180;5.646;2023-04-01T15:42:27;5.13;;;4.63;;
22248;SDS011;67538;52.180;5.646;2023-04-01T15:45:16;4.75;;;4.35;;
22248;SDS011;67538;52.180;5.646;2023-04-01T15:48:01;4.72;;;4.32;;
22248;SDS011;67538;52.180;5.646;2023-04-01T15:56:43;5.18;;;4.68;;
22248;SDS011;67538;52.180;5.646;2023-04-01T15:59:19;4.60;;;4.20;;
22248;SDS011;67538;52.180;5.646;2023-04-01T16:01:58;5.18;;;4.70;;
22248;SDS011;67538;52.180;5.646;2023-04-01T16:04:39;5.05;;;4.60;;
22248;SDS011;67538;52.180;5.646;2023-04-01T16:07:18;5.07;;;4.68;;
22248;SDS011;67538;52.180;5.646;2023-04-01T16:10:10;5.00;;;4.60;;
22248;SDS011;67538;52.180;5.646;2023-04-01T16:12:53;5.87;;;5.30;;
22248;SDS011;67538;52.180;5.646;2023-04-01T16:15:33;5.35;;;4.85;;
22248;SDS011;67538;52.180;5.646;2023-04-01T16:18:17;5.35;;;4.85;;
22248;SDS011;67538;52.180;5.646;2023-04-01T16:20:54;5.28;;;4.68;;
22248;SDS011;67538;52.180;5.646;2023-04-01T16:23:26;4.80;;;4.40;;
22248;SDS011;67538;52.180;5.646;2023-04-01T16:26:04;5.25;;;4.50;;
22248;SDS011;67538;52.180;5.646;2023-04-01T16:28:36;5.10;;;4.60;;
22248;SDS011;67538;52.180;5.646;2023-04-01T16:31:10;5.38;;;4.88;;
22248;SDS011;67538;52.180;5.646;2023-04-01T16:33:45;6.07;;;5.47;;
22248;SDS011;67538;52.180;5.646;2023-04-01T16:36:20;6.50;;;5.90;;
22248;SDS011;67538;52.180;5.646;2023-04-01T16:39:06;6.70;;;6.10;;
22248;SDS011;67538;52.180;5.646;2023-04-01T16:41:46;6.60;;;5.55;;
22248;SDS011;67538;52.180;5.646;2023-04-01T16:44:17;6.13;;;5.53;;
22248;SDS011;67538;52.180;5.646;2023-04-01T16:46:47;6.00;;;5.43;;
22248;SDS011;67538;52.180;5.646;2023-04-01T16:49:24;7.57;;;5.95;;
22248;SDS011;67538;52.180;5.646;2023-04-01T16:52:04;6.70;;;6.10;;
22248;SDS011;67538;52.180;5.646;2023-04-01T16:54:43;7.03;;;6.32;;
22248;SDS011;67538;52.180;5.646;2023-04-01T16:57:21;6.85;;;6.15;;
22248;SDS011;67538;52.180;5.646;2023-04-01T16:59:54;6.22;;;5.70;;
22248;SDS011;67538;52.180;5.646;2023-04-01T17:02:27;6.85;;;6.20;;
22248;SDS011;67538;52.180;5.646;2023-04-01T17:04:59;6.88;;;6.28;;
22248;SDS011;67538;52.180;5.646;2023-04-01T17:07:33;7.10;;;6.23;;
22248;SDS011;67538;52.180;5.646;2023-04-01T17:13:11;7.15;;;6.55;;
22248;SDS011;67538;52.180;5.646;2023-04-01T17:15:55;7.27;;;6.57;;
22248;SDS011;67538;52.180;5.646;2023-04-01T17:18:34;7.43;;;6.25;;